FNUE

Luena Airport

Luena, Angola
METAR FNUE 140800Z 29003KT 9999 SCT030 24/20 Q1022
Observed Flight Rules
Dec-14 @ 08:00 UTC (35 minutes ago) Visual Flight Rules
Wind Visibility Clouds
290° at 3 knots 10,000+ meters
  • Scattered at 3,000' AGL
Temperatures Readings
Current 24°C / 75°F
Dewpoint 20°C / 68°F
Humidity 78%
Altimeter 30.18" Hg
Pressure 1022 hPa
Elevation 1329
METAR FNUE 140800Z 29003KT 9999 SCT030 24/20 Q1022
Observed Flight Rules
Dec-14 @ 08:00 UTC
(35 minutes ago)
VFR
Wind Visibility
290° at 3 knots 10,000+ meters
Clouds
  • Scattered at 3,000' AGL
Temperature Dewpoint
24°C / 75°F 20°C / 68°F
Humidity Altimeter Pressure
78% 30.18" Hg 1022 hPa